KLM213 EGKK-EDDF
Flight info
| Callsign | KLM213 |
|---|---|
| Flight time | N/A |
| Altitude | 35000 |
| Route | DVR UL9 KONAN UL607 KOK DCT REMBA UL607 SPI T180 NIVNU/N0444F230 T847 IMCOM IMCOM1B |
| Aircraft | B77W/H-SDE1E2E3FGHIJ2J3J4J5M1RWXY/LB1D1 |
Departure
| Time | 2026-05-06 12:44 |
|---|---|
| Airport | London Gatwick Airport (EGKK) |
Arrival
| Time | N/A |
|---|---|
| Airport | Frankfurt Main Airport (EDDF) |
| Time | Latitude | Longitude | Altitude | Speed | Heading |
|---|---|---|---|---|---|
| 2026-05-06 12:14 | 51.15606 | -0.16783 | 210 ft | 0 kts | 167° |
| 2026-05-06 12:27 | 51.15616 | -0.16787 | 237 ft | 3 kts | 167° |
| 2026-05-06 12:27 | 51.15636 | -0.16793 | 239 ft | 3 kts | 171° |
| 2026-05-06 12:28 | 51.15656 | -0.16796 | 216 ft | 3 kts | 183° |
| 2026-05-06 12:28 | 51.15671 | -0.16792 | 215 ft | 2 kts | 220° |
| 2026-05-06 12:28 | 51.15678 | -0.16778 | 223 ft | 2 kts | 248° |
| 2026-05-06 12:28 | 51.15682 | -0.16762 | 216 ft | 1 kts | 256° |
| 2026-05-06 12:29 | 51.15684 | -0.16748 | 217 ft | 1 kts | 258° |
| 2026-05-06 12:29 | 51.15685 | -0.16735 | 221 ft | 1 kts | 259° |
| 2026-05-06 12:29 | 51.15685 | -0.16734 | 221 ft | 0 kts | 259° |
| 2026-05-06 12:32 | 51.15684 | -0.16749 | 217 ft | 3 kts | 259° |
| 2026-05-06 12:32 | 51.15677 | -0.16807 | 215 ft | 7 kts | 259° |
| 2026-05-06 12:32 | 51.15664 | -0.16903 | 218 ft | 10 kts | 257° |
| 2026-05-06 12:33 | 51.15648 | -0.17012 | 218 ft | 10 kts | 257° |
| 2026-05-06 12:33 | 51.15633 | -0.17120 | 219 ft | 10 kts | 257° |
| 2026-05-06 12:33 | 51.15617 | -0.17230 | 217 ft | 10 kts | 256° |
| 2026-05-06 12:33 | 51.15600 | -0.17339 | 216 ft | 10 kts | 256° |
| 2026-05-06 12:34 | 51.15571 | -0.17439 | 215 ft | 10 kts | 227° |
| 2026-05-06 12:34 | 51.15535 | -0.17534 | 216 ft | 10 kts | 253° |
| 2026-05-06 12:34 | 51.15521 | -0.17645 | 215 ft | 10 kts | 258° |
| 2026-05-06 12:34 | 51.15506 | -0.17756 | 215 ft | 10 kts | 258° |
| 2026-05-06 12:35 | 51.15491 | -0.17867 | 212 ft | 10 kts | 258° |
| 2026-05-06 12:35 | 51.15476 | -0.17978 | 218 ft | 10 kts | 258° |
| 2026-05-06 12:35 | 51.15461 | -0.18089 | 221 ft | 10 kts | 258° |
| 2026-05-06 12:35 | 51.15446 | -0.18199 | 218 ft | 8 kts | 258° |
| 2026-05-06 12:36 | 51.15430 | -0.18257 | 219 ft | 5 kts | 229° |
| 2026-05-06 12:36 | 51.15397 | -0.18276 | 219 ft | 5 kts | 186° |
| 2026-05-06 12:36 | 51.15362 | -0.18271 | 218 ft | 5 kts | 168° |
| 2026-05-06 12:36 | 51.15316 | -0.18256 | 217 ft | 10 kts | 168° |
| 2026-05-06 12:37 | 51.15253 | -0.18234 | 215 ft | 9 kts | 168° |
| 2026-05-06 12:37 | 51.15203 | -0.18260 | 220 ft | 9 kts | 236° |
| 2026-05-06 12:37 | 51.15181 | -0.18370 | 215 ft | 12 kts | 257° |
| 2026-05-06 12:37 | 51.15162 | -0.18511 | 217 ft | 14 kts | 258° |
| 2026-05-06 12:38 | 51.15139 | -0.18682 | 212 ft | 17 kts | 256° |
| 2026-05-06 12:38 | 51.15111 | -0.18880 | 219 ft | 19 kts | 257° |
| 2026-05-06 12:38 | 51.15082 | -0.19090 | 219 ft | 19 kts | 258° |
| 2026-05-06 12:38 | 51.15055 | -0.19291 | 219 ft | 19 kts | 257° |
| 2026-05-06 12:39 | 51.15028 | -0.19491 | 220 ft | 19 kts | 257° |
| 2026-05-06 12:39 | 51.14999 | -0.19691 | 218 ft | 19 kts | 257° |
| 2026-05-06 12:39 | 51.14973 | -0.19884 | 218 ft | 14 kts | 258° |
| 2026-05-06 12:39 | 51.14952 | -0.20038 | 216 ft | 14 kts | 258° |
| 2026-05-06 12:40 | 51.14931 | -0.20192 | 216 ft | 14 kts | 258° |
| 2026-05-06 12:40 | 51.14909 | -0.20345 | 218 ft | 14 kts | 257° |
| 2026-05-06 12:40 | 51.14891 | -0.20479 | 215 ft | 11 kts | 257° |
| 2026-05-06 12:40 | 51.14874 | -0.20603 | 217 ft | 11 kts | 257° |
| 2026-05-06 12:41 | 51.14857 | -0.20726 | 212 ft | 11 kts | 257° |
| 2026-05-06 12:41 | 51.14840 | -0.20849 | 219 ft | 11 kts | 258° |
| 2026-05-06 12:41 | 51.14823 | -0.20973 | 218 ft | 11 kts | 258° |
| 2026-05-06 12:41 | 51.14806 | -0.21096 | 212 ft | 11 kts | 256° |
| 2026-05-06 12:42 | 51.14782 | -0.21217 | 213 ft | 11 kts | 252° |
| 2026-05-06 12:42 | 51.14763 | -0.21336 | 212 ft | 9 kts | 257° |
| 2026-05-06 12:42 | 51.14740 | -0.21390 | 219 ft | 6 kts | 211° |
| 2026-05-06 12:42 | 51.14713 | -0.21392 | 221 ft | 6 kts | 164° |
| 2026-05-06 12:43 | 51.14671 | -0.21363 | 221 ft | 7 kts | 156° |
| 2026-05-06 12:43 | 51.14593 | -0.21320 | 218 ft | 14 kts | 161° |
| 2026-05-06 12:43 | 51.14533 | -0.21242 | 222 ft | 20 kts | 119° |
| 2026-05-06 12:43 | 51.14571 | -0.20802 | 216 ft | 60 kts | 77° |
| 2026-05-06 12:44 | 51.14716 | -0.19762 | 220 ft | 130 kts | 77° |
| 2026-05-06 12:44 | 51.14876 | -0.18680 | 231 ft | 164 kts | 75° |
| 2026-05-06 12:44 | 51.15130 | -0.16805 | 683 ft | 170 kts | 74° |
| 2026-05-06 12:44 | 51.15421 | -0.14917 | 1425 ft | 175 kts | 72° |
| 2026-05-06 12:45 | 51.15719 | -0.13005 | 2241 ft | 178 kts | 72° |
| 2026-05-06 12:45 | 51.16019 | -0.11071 | 2973 ft | 183 kts | 71° |
| 2026-05-06 12:45 | 51.16655 | -0.07079 | 4345 ft | 188 kts | 72° |
| 2026-05-06 12:46 | 51.16960 | -0.05049 | 4964 ft | 196 kts | 75° |
| 2026-05-06 12:46 | 51.16979 | -0.02744 | 5191 ft | 222 kts | 91° |
| 2026-05-06 12:46 | 51.16873 | -0.00125 | 5505 ft | 249 kts | 89° |
| 2026-05-06 12:46 | 51.16801 | 0.02689 | 6003 ft | 258 kts | 89° |
| 2026-05-06 12:47 | 51.16740 | 0.05581 | 5937 ft | 264 kts | 89° |